createdAt,value
2022-10-23T00:04:06.673Z,11.5
2022-10-23T00:09:07.019Z,11.4
2022-10-23T00:14:06.428Z,11.4
2022-10-23T00:19:06.723Z,11.4
2022-10-23T00:24:07.120Z,11.4
2022-10-23T00:29:06.480Z,11.4
2022-10-23T00:34:06.795Z,11.4
2022-10-23T00:39:07.069Z,11.3
2022-10-23T00:44:06.403Z,11.3
2022-10-23T00:49:06.742Z,11.2
2022-10-23T00:54:25.590Z,11.2
2022-10-23T00:59:07.049Z,11.1
2022-10-23T01:04:06.751Z,11.1
2022-10-23T01:09:07.269Z,11.1
2022-10-23T01:14:06.591Z,11.1
2022-10-23T01:19:06.872Z,11.1
2022-10-23T01:24:07.172Z,11.1
2022-10-23T01:29:06.298Z,11
2022-10-23T01:34:06.790Z,11
2022-10-23T01:39:07.184Z,10.9
2022-10-23T01:44:06.687Z,10.9
2022-10-23T01:49:07.040Z,10.7
2022-10-23T01:54:07.219Z,10.7
2022-10-23T01:59:06.677Z,10.6
2022-10-23T02:04:06.990Z,10.6
2022-10-23T02:09:07.290Z,10.5
2022-10-23T02:14:06.451Z,10.5
2022-10-23T02:19:06.783Z,10.4
2022-10-23T02:24:06.970Z,10.4
2022-10-23T02:29:07.306Z,10.3
2022-10-23T02:34:06.597Z,10.3
2022-10-23T02:39:06.966Z,10.3
2022-10-23T02:44:06.902Z,10.3
2022-10-23T02:49:06.377Z,10.3
2022-10-23T02:54:06.925Z,10.3
2022-10-23T02:59:06.457Z,10.3
2022-10-23T03:04:06.967Z,10.3
2022-10-23T03:09:06.977Z,10.3
2022-10-23T03:14:07.089Z,10.3
2022-10-23T03:19:06.679Z,10.3
2022-10-23T03:24:06.675Z,10.3
2022-10-23T03:29:07.399Z,10.3
2022-10-23T03:34:08.604Z,10.3
2022-10-23T03:39:06.509Z,10.3
2022-10-23T03:44:06.467Z,10.3
2022-10-23T03:49:07.378Z,10.2
2022-10-23T03:54:06.669Z,10.2
2022-10-23T03:59:06.536Z,10.1
2022-10-23T04:04:07.088Z,10.1
2022-10-23T04:09:07.984Z,10
2022-10-23T04:14:07.269Z,10
2022-10-23T04:19:07.177Z,9.8
2022-10-23T04:24:07.451Z,9.8
2022-10-23T04:29:06.966Z,9.7
2022-10-23T04:34:07.539Z,9.7
2022-10-23T04:39:07.423Z,9.6
2022-10-23T04:44:06.712Z,9.6
2022-10-23T04:49:06.419Z,9.4
2022-10-23T04:54:06.919Z,9.4
2022-10-23T04:59:07.407Z,9.2
2022-10-23T05:04:06.880Z,9.2
2022-10-23T05:09:07.330Z,9.1
2022-10-23T05:14:06.766Z,9.1
2022-10-23T05:19:07.262Z,8.9
2022-10-23T05:24:06.569Z,8.9
2022-10-23T05:29:06.932Z,8.8
2022-10-23T05:34:13.527Z,8.8
2022-10-23T05:39:07.355Z,8.7
2022-10-23T05:44:06.597Z,8.7
2022-10-23T05:49:06.845Z,8.7
2022-10-23T05:54:06.943Z,8.7
2022-10-23T05:59:07.033Z,8.6
2022-10-23T06:04:07.212Z,8.6
2022-10-23T06:09:07.492Z,8.6
2022-10-23T06:14:06.897Z,8.6
2022-10-23T06:19:07.026Z,8.6
2022-10-23T06:24:07.222Z,8.6
2022-10-23T06:29:06.741Z,8.6
2022-10-23T06:34:07.280Z,8.6
2022-10-23T06:39:07.181Z,8.6
2022-10-23T06:44:06.598Z,8.6
2022-10-23T06:49:06.833Z,8.8
2022-10-23T06:54:07.193Z,8.8
2022-10-23T06:59:06.658Z,9
2022-10-23T07:04:07.171Z,9
2022-10-23T07:09:07.540Z,9.2
2022-10-23T07:14:06.947Z,9.2
2022-10-23T07:19:07.183Z,10.2
2022-10-23T07:24:07.490Z,10.2
2022-10-23T07:29:06.699Z,10.5
2022-10-23T07:34:07.033Z,10.5
2022-10-23T07:39:07.180Z,10.7
2022-10-23T07:44:07.678Z,10.7
2022-10-23T07:49:06.899Z,11
2022-10-23T07:54:07.095Z,11
2022-10-23T07:59:07.533Z,11.3
2022-10-23T08:04:06.876Z,11.3
2022-10-23T08:09:07.396Z,11.6
2022-10-23T08:14:06.688Z,11.6
2022-10-23T08:19:06.861Z,11.8
2022-10-23T08:24:07.392Z,11.8
2022-10-23T08:29:06.614Z,12.2
2022-10-23T08:34:06.925Z,12.2
2022-10-23T08:39:07.106Z,12.6
2022-10-23T08:44:07.346Z,12.6
2022-10-23T08:49:06.650Z,12.8
2022-10-23T08:54:07.112Z,12.8
2022-10-23T08:59:06.753Z,13.1
2022-10-23T09:04:07.615Z,13.1
2022-10-23T09:09:07.154Z,13.4
2022-10-23T09:14:06.854Z,13.4
2022-10-23T09:19:12.275Z,13.4
2022-10-23T09:24:07.015Z,13.4
2022-10-23T09:29:07.308Z,13.6
2022-10-23T09:34:11.882Z,13.6
2022-10-23T09:39:07.405Z,13.8
2022-10-23T09:44:06.599Z,13.8
2022-10-23T09:49:07.351Z,14.1
2022-10-23T09:54:07.583Z,14.1
2022-10-23T09:59:06.947Z,14.2
2022-10-23T10:04:07.633Z,14.2
2022-10-23T10:09:06.999Z,14.5
2022-10-23T10:14:07.448Z,14.5
2022-10-23T10:19:07.066Z,14.7
2022-10-23T10:24:07.509Z,14.7
2022-10-23T10:29:07.124Z,14.8
2022-10-23T10:34:07.714Z,14.8
2022-10-23T10:39:07.245Z,15
2022-10-23T10:44:07.600Z,15
2022-10-23T10:49:06.979Z,15
2022-10-23T10:54:06.912Z,15
2022-10-23T10:59:07.320Z,15.1
2022-10-23T11:04:06.755Z,15.1
2022-10-23T11:09:21.185Z,15.3
2022-10-23T11:14:07.537Z,15.3
2022-10-23T11:19:14.295Z,15.6
2022-10-23T11:24:07.695Z,15.6
2022-10-23T11:29:07.293Z,15.6
2022-10-23T11:34:07.649Z,15.6
2022-10-23T11:39:07.445Z,15.8
2022-10-23T11:44:07.710Z,15.8
2022-10-23T11:49:07.396Z,16
2022-10-23T11:54:07.572Z,16
2022-10-23T11:59:06.810Z,16.3
2022-10-23T12:04:07.180Z,16.3
2022-10-23T12:09:07.668Z,16.6
2022-10-23T12:14:07.279Z,16.6
2022-10-23T12:19:07.449Z,16.6
2022-10-23T12:24:07.188Z,16.6
2022-10-23T12:29:07.968Z,16.8
2022-10-23T12:34:06.914Z,16.8
2022-10-23T12:39:07.960Z,16.8
2022-10-23T12:44:07.817Z,16.8
2022-10-23T12:49:07.499Z,16.6
2022-10-23T12:54:07.720Z,16.6
2022-10-23T12:59:07.394Z,16.6
2022-10-23T13:04:07.409Z,16.6
2022-10-23T13:09:07.202Z,16.7
2022-10-23T13:14:07.493Z,16.7
2022-10-23T13:19:07.087Z,16.7
2022-10-23T13:24:07.224Z,16.7
2022-10-23T13:29:09.883Z,16.7
2022-10-23T13:34:07.830Z,16.7
2022-10-23T13:39:06.869Z,16.6
2022-10-23T13:44:07.527Z,16.6
2022-10-23T13:49:07.191Z,16.6
2022-10-23T13:54:07.768Z,16.6
2022-10-23T13:59:07.345Z,16.6
2022-10-23T14:04:07.452Z,16.6
2022-10-23T14:09:07.294Z,16.6
2022-10-23T14:14:06.806Z,16.6
2022-10-23T14:19:07.364Z,16.6
2022-10-23T14:24:07.766Z,16.6
2022-10-23T14:29:21.256Z,16.4
2022-10-23T14:34:07.888Z,16.4
2022-10-23T14:39:07.817Z,16.4
2022-10-23T14:44:07.159Z,16.4
2022-10-23T14:49:06.992Z,16.3
2022-10-23T14:54:07.055Z,16.3
2022-10-23T14:59:07.337Z,16.3
2022-10-23T15:04:07.504Z,16.3
2022-10-23T15:09:07.795Z,16.3
2022-10-23T15:14:07.767Z,16.3
2022-10-23T15:19:12.198Z,16.3
2022-10-23T15:24:07.632Z,16.3
2022-10-23T15:29:07.243Z,16.2
2022-10-23T15:34:07.343Z,16.2
2022-10-23T15:39:07.053Z,16.2
2022-10-23T15:44:07.658Z,16.2
2022-10-23T15:49:07.479Z,16.1
2022-10-23T15:54:07.139Z,16.1
2022-10-23T15:59:06.937Z,15.9
2022-10-23T16:04:07.179Z,15.9
2022-10-23T16:09:07.380Z,15.8
2022-10-23T16:14:07.684Z,15.8
2022-10-23T16:19:07.444Z,15.7
2022-10-23T16:24:07.819Z,15.7
2022-10-23T16:29:07.686Z,15.6
2022-10-23T16:34:07.827Z,15.6
2022-10-23T16:39:07.713Z,15.6
2022-10-23T16:44:07.181Z,15.6
2022-10-23T16:49:07.494Z,15.5
2022-10-23T16:54:07.669Z,15.5
2022-10-23T16:59:07.125Z,15.4
2022-10-23T17:04:07.298Z,15.4
2022-10-23T17:09:07.586Z,15.4
2022-10-23T17:14:07.817Z,15.4
2022-10-23T17:19:40.194Z,15.4
2022-10-23T17:24:07.657Z,15.4
2022-10-23T17:29:07.817Z,15.3
2022-10-23T17:34:07.044Z,15.3
2022-10-23T17:39:07.972Z,15.3
2022-10-23T17:44:07.127Z,15.3
2022-10-23T17:49:07.298Z,15.2
2022-10-23T17:54:07.466Z,15.2
2022-10-23T17:59:07.533Z,15.2
2022-10-23T18:04:07.722Z,15.2
2022-10-23T18:09:08.014Z,15.2
2022-10-23T18:14:07.445Z,15.2
2022-10-23T18:19:07.999Z,15.2
2022-10-23T18:24:07.176Z,15.2
2022-10-23T18:29:07.393Z,15.1
2022-10-23T18:34:07.829Z,15.1
2022-10-23T18:39:07.208Z,15.1
2022-10-23T18:44:07.489Z,15.1
2022-10-23T18:49:07.849Z,15.1
2022-10-23T18:54:07.023Z,15.1
2022-10-23T18:59:07.300Z,15.1
2022-10-23T19:04:07.494Z,15.1
2022-10-23T19:09:07.622Z,15
2022-10-23T19:14:07.999Z,15
2022-10-23T19:19:07.225Z,14.9
2022-10-23T19:24:07.368Z,14.9
2022-10-23T19:29:07.507Z,14.9
2022-10-23T19:34:07.736Z,14.9
2022-10-23T19:39:07.437Z,14.9
2022-10-23T19:44:07.532Z,14.9
2022-10-23T19:49:07.791Z,14.9
2022-10-23T19:54:07.908Z,14.9
2022-10-23T19:59:07.069Z,14.9
2022-10-23T20:04:07.375Z,14.9
2022-10-23T20:09:07.634Z,14.9
2022-10-23T20:14:07.828Z,14.9
2022-10-23T20:19:07.513Z,14.9
2022-10-23T20:24:07.851Z,14.9
2022-10-23T20:29:08.019Z,14.8
2022-10-23T20:34:07.210Z,14.8
2022-10-23T20:39:07.548Z,14.8
2022-10-23T20:44:07.905Z,14.8
2022-10-23T20:49:07.302Z,14.7
2022-10-23T20:54:07.008Z,14.7
2022-10-23T20:59:07.316Z,14.7
2022-10-23T21:04:07.974Z,14.7
2022-10-23T21:09:08.232Z,14.6
2022-10-23T21:14:07.567Z,14.6
2022-10-23T21:19:07.893Z,14.6
2022-10-23T21:24:07.244Z,14.6
2022-10-23T21:29:20.108Z,14.5
2022-10-23T21:34:08.111Z,14.5
2022-10-23T21:39:07.066Z,14.4
2022-10-23T21:44:07.570Z,14.4
2022-10-23T21:49:07.769Z,14.5
2022-10-23T21:54:07.942Z,14.5
2022-10-23T22:04:07.164Z,14.6
2022-10-23T22:09:07.794Z,14.7
2022-10-23T22:14:08.144Z,14.7
2022-10-23T22:19:07.421Z,14.7
2022-10-23T22:24:07.879Z,14.7
2022-10-23T22:29:07.131Z,14.7
2022-10-23T22:34:51.712Z,14.7
2022-10-23T22:39:07.961Z,14.7
2022-10-23T22:44:08.143Z,14.7
2022-10-23T22:49:07.348Z,14.6
2022-10-23T22:54:07.677Z,14.6
2022-10-23T22:59:08.017Z,14.5
2022-10-23T23:04:38.305Z,14.5
2022-10-23T23:09:08.083Z,14.4
2022-10-23T23:14:07.356Z,14.4
2022-10-23T23:19:07.695Z,14.3
2022-10-23T23:24:07.826Z,14.3
2022-10-23T23:29:08.130Z,14.2
2022-10-23T23:34:07.347Z,14.2
2022-10-23T23:39:07.858Z,14.2
2022-10-23T23:44:07.260Z,14.2
2022-10-23T23:49:07.779Z,14.1
2022-10-23T23:54:07.923Z,14.1
2022-10-23T23:59:07.691Z,14.1
